Time;durP1;ratioP1;P1;durP2;ratioP2;P2;SDS_P1;SDS_P2;PMS_P1;PMS_P2;Temp;Humidity;BMP_temperature;BMP_pressure;BME280_temperature;BME280_humidity;BME280_pressure;Samples;Min_cycle;Max_cycle;Signal;HPM_P1;HPM_P2
2021/12/20 00:01:52;;;;;;;24.20;16.93;;;;;;;3.63;98.62;98953.16;5057907;28;20500;-73
2021/12/20 00:04:18;;;;;;;24.93;18.50;;;;;;;3.69;98.16;98952.53;5057459;28;20190;-73
2021/12/20 00:06:45;;;;;;;23.03;17.40;;;;;;;3.67;96.99;98949.25;5057546;28;20209;-73
2021/12/20 00:09:11;;;;;;;24.03;18.17;;;;;;;3.65;97.65;98941.50;5057700;28;20217;-73
2021/12/20 00:11:37;;;;;;;23.63;17.63;;;;;;;3.67;98.38;98942.16;5057254;28;20220;-73
2021/12/20 00:14:04;;;;;;;23.27;17.70;;;;;;;3.66;98.05;98940.53;5057561;28;20200;-73
2021/12/20 00:16:30;;;;;;;22.70;16.93;;;;;;;3.61;98.37;98931.47;5058116;28;20190;-73
2021/12/20 00:18:57;;;;;;;22.63;18.17;;;;;;;3.59;98.36;98929.00;5057501;28;20228;-73
2021/12/20 00:21:23;;;;;;;22.53;17.47;;;;;;;3.61;97.19;98934.09;5057471;28;20194;-73
2021/12/20 00:23:50;;;;;;;23.70;17.67;;;;;;;3.63;97.53;98924.25;5057435;28;20190;-73
2021/12/20 00:26:16;;;;;;;22.80;17.43;;;;;;;3.60;97.62;98921.91;5056983;28;20527;-73
2021/12/20 00:28:43;;;;;;;22.63;16.77;;;;;;;3.62;98.13;98923.41;5056954;28;20624;-72
2021/12/20 00:31:10;;;;;;;20.67;16.50;;;;;;;3.57;97.62;98916.97;5057035;28;20190;-73
2021/12/20 00:33:36;;;;;;;23.07;16.87;;;;;;;3.63;97.78;98909.31;5057758;28;20196;-73
2021/12/20 00:36:08;;;;;;;21.83;16.40;;;;;;;3.65;98.14;98906.50;5057158;28;20217;-73
2021/12/20 00:41:20;;;;;;;24.33;17.47;;;;;;;3.57;97.67;98915.16;5057136;28;20169;-72
2021/12/20 00:43:47;;;;;;;22.63;17.00;;;;;;;3.61;98.45;98913.88;5057133;28;20189;-73
2021/12/20 00:46:13;;;;;;;23.63;17.77;;;;;;;3.69;97.74;98911.31;5056966;28;20225;-73
2021/12/20 00:48:40;;;;;;;24.93;17.37;;;;;;;3.60;97.93;98914.03;5057199;28;20481;-73
2021/12/20 00:51:06;;;;;;;23.27;17.43;;;;;;;3.60;98.26;98909.59;5056984;28;20193;-73
2021/12/20 00:53:32;;;;;;;21.63;16.47;;;;;;;3.60;98.54;98914.03;5056929;28;20190;-73
2021/12/20 00:55:59;;;;;;;22.77;17.43;;;;;;;3.60;98.27;98911.41;5056615;28;20686;-73
2021/12/20 00:58:25;;;;;;;22.50;16.37;;;;;;;3.61;98.73;98902.56;5056910;28;20256;-73
2021/12/20 01:00:54;;;;;;;22.83;17.50;;;;;;;3.61;99.00;98907.81;5056868;28;20192;-73
2021/12/20 01:03:22;;;;;;;21.70;17.00;;;;;;;3.55;98.59;98913.66;5056813;28;20201;-73
2021/12/20 01:05:49;;;;;;;21.67;16.87;;;;;;;3.60;97.96;98914.03;5056381;28;20640;-73
2021/12/20 01:08:18;;;;;;;22.33;17.13;;;;;;;3.55;98.78;98905.78;5056697;28;20194;-73
2021/12/20 01:10:50;;;;;;;22.73;16.80;;;;;;;3.56;98.32;98910.03;5056402;28;20225;-73
2021/12/20 01:13:20;;;;;;;21.23;17.37;;;;;;;3.51;98.80;98901.81;5056369;28;20581;-72
2021/12/20 01:15:50;;;;;;;25.93;17.87;;;;;;;3.48;98.81;98894.25;5056581;28;20227;-72
2021/12/20 01:18:18;;;;;;;24.20;16.90;;;;;;;3.43;99.19;98899.16;5056301;28;20189;-73
2021/12/20 01:20:44;;;;;;;24.33;17.23;;;;;;;3.41;99.96;98908.97;5056472;28;20196;-73
2021/12/20 01:23:12;;;;;;;24.70;16.50;;;;;;;3.36;100.00;98904.19;5055809;28;20572;-73
2021/12/20 01:25:39;;;;;;;22.87;16.33;;;;;;;3.33;99.82;98907.09;5056138;28;20504;-72
2021/12/20 01:28:07;;;;;;;22.97;16.70;;;;;;;3.28;99.94;98900.66;5056517;28;20193;-73
2021/12/20 01:30:34;;;;;;;23.37;16.90;;;;;;;3.26;100.00;98908.69;5056378;28;20210;-73
2021/12/20 01:33:00;;;;;;;26.00;17.43;;;;;;;3.19;100.00;98907.66;5056458;28;20185;-73
2021/12/20 01:35:28;;;;;;;22.40;15.73;;;;;;;3.12;100.00;98913.66;5056348;28;20228;-73
2021/12/20 01:37:56;;;;;;;22.07;15.97;;;;;;;3.08;100.00;98910.50;5056116;28;20619;-73
2021/12/20 01:40:24;;;;;;;24.33;15.37;;;;;;;3.05;100.00;98900.31;5056412;28;20473;-71
2021/12/20 01:42:55;;;;;;;23.90;16.67;;;;;;;3.03;100.00;98893.56;5056043;28;20193;-72
2021/12/20 01:45:23;;;;;;;26.67;17.37;;;;;;;2.98;100.00;98894.00;5056202;28;20236;-72
2021/12/20 01:48:01;;;;;;;23.13;16.53;;;;;;;2.98;100.00;98888.75;5055997;28;20611;-71
2021/12/20 01:50:46;;;;;;;26.80;17.80;;;;;;;2.99;100.00;98889.59;5056207;28;20213;-71
2021/12/20 01:53:18;;;;;;;25.47;17.03;;;;;;;2.96;100.00;98895.13;5056295;28;20251;-72
2021/12/20 01:55:44;;;;;;;22.40;16.60;;;;;;;2.96;100.00;98890.72;5056183;28;20264;-72
2021/12/20 01:58:11;;;;;;;22.80;16.53;;;;;;;2.97;100.00;98894.16;5056244;28;20193;-71
2021/12/20 02:00:49;;;;;;;26.40;17.47;;;;;;;2.94;100.00;98891.84;5056182;28;20208;-71
2021/12/20 02:03:21;;;;;;;25.80;18.37;;;;;;;3.02;100.00;98889.28;5055891;28;20616;-71
2021/12/20 02:05:52;;;;;;;29.40;18.30;;;;;;;3.03;100.00;98891.75;5055709;28;20225;-72
2021/12/20 02:08:22;;;;;;;24.50;17.13;;;;;;;3.08;100.00;98888.69;5056098;28;20189;-71
2021/12/20 02:10:53;;;;;;;27.40;18.03;;;;;;;3.08;100.00;98884.22;5055830;28;20221;-72
2021/12/20 02:13:21;;;;;;;25.47;17.43;;;;;;;3.09;100.00;98885.06;5056055;28;20199;-71
2021/12/20 02:15:48;;;;;;;26.03;17.97;;;;;;;2.99;100.00;98879.09;5055715;28;20671;-72
2021/12/20 02:18:14;;;;;;;26.07;17.00;;;;;;;3.04;100.00;98882.91;5055728;28;20603;-71
2021/12/20 02:20:40;;;;;;;27.00;17.63;;;;;;;3.03;100.00;98886.50;5055991;28;20185;-71
2021/12/20 02:23:08;;;;;;;27.50;17.80;;;;;;;3.01;100.00;98887.63;5055971;28;20201;-72
2021/12/20 02:25:36;;;;;;;25.60;16.53;;;;;;;3.06;100.00;98883.56;5055888;28;20225;-71
2021/12/20 02:28:06;;;;;;;27.07;17.87;;;;;;;3.00;100.00;98876.31;5055953;28;20190;-72
2021/12/20 02:30:44;;;;;;;25.50;17.10;;;;;;;3.01;100.00;98877.13;5055850;28;20296;-71
2021/12/20 02:38:40;;;;;;;26.93;17.27;;;;;;;2.89;100.00;98866.03;5059453;28;20595;-71
2021/12/20 02:41:11;;;;;;;25.33;16.70;;;;;;;2.96;100.00;98868.88;5059306;28;20193;-71
2021/12/20 02:43:42;;;;;;;26.23;17.13;;;;;;;2.91;100.00;98866.72;5059375;28;20285;-72
2021/12/20 02:46:29;;;;;;;26.20;16.37;;;;;;;2.97;100.00;98868.72;5059264;28;20267;-71
2021/12/20 02:48:56;;;;;;;27.13;17.43;;;;;;;2.97;100.00;98860.00;5059474;28;20201;-72
2021/12/20 02:51:26;;;;;;;24.50;16.63;;;;;;;2.98;100.00;98861.69;5059169;28;20221;-71
2021/12/20 02:53:52;;;;;;;26.13;17.03;;;;;;;2.97;100.00;98854.75;5059097;28;20190;-71
2021/12/20 02:56:19;;;;;;;25.10;17.00;;;;;;;2.94;100.00;98857.69;5059066;28;20228;-71
2021/12/20 02:58:46;;;;;;;26.93;17.03;;;;;;;2.98;100.00;98864.31;5058784;28;20196;-71
2021/12/20 03:01:13;;;;;;;24.73;15.50;;;;;;;2.99;100.00;98858.88;5059109;28;20182;-72
2021/12/20 03:03:40;;;;;;;23.70;17.03;;;;;;;3.01;100.00;98859.56;5059006;28;20193;-71
2021/12/20 03:06:14;;;;;;;26.43;17.60;;;;;;;3.06;100.00;98852.06;5058890;28;20225;-72
2021/12/20 03:08:45;;;;;;;24.50;15.93;;;;;;;3.07;100.00;98866.03;5058640;28;20196;-71
2021/12/20 03:11:11;;;;;;;25.47;16.63;;;;;;;3.04;100.00;98864.53;5058351;28;20505;-71
2021/12/20 03:13:39;;;;;;;25.53;16.43;;;;;;;3.26;100.00;98865.84;5058824;28;20197;-72
2021/12/20 03:16:05;;;;;;;24.53;16.27;;;;;;;3.21;100.00;98865.47;5058440;28;20221;-72
2021/12/20 03:18:32;;;;;;;26.90;17.83;;;;;;;3.12;100.00;98869.00;5058711;28;20208;-71
2021/12/20 03:20:58;;;;;;;23.10;15.90;;;;;;;3.09;100.00;98861.44;5059218;28;20185;-71
2021/12/20 03:23:25;;;;;;;27.43;17.70;;;;;;;3.03;100.00;98859.41;5058666;28;20193;-72
2021/12/20 03:25:51;;;;;;;26.07;17.43;;;;;;;3.00;100.00;98859.72;5058533;28;20224;-71
2021/12/20 03:28:17;;;;;;;27.13;17.37;;;;;;;2.96;100.00;98863.63;5058547;28;20198;-71
2021/12/20 03:30:44;;;;;;;27.77;19.10;;;;;;;3.04;100.00;98874.19;5058434;28;20217;-71
2021/12/20 03:33:11;;;;;;;28.80;18.33;;;;;;;3.13;100.00;98882.00;5058421;28;20200;-72
2021/12/20 03:35:38;;;;;;;26.47;18.20;;;;;;;3.23;100.00;98880.09;5058370;28;20221;-72
2021/12/20 03:38:04;;;;;;;26.63;17.00;;;;;;;3.12;100.00;98877.69;5058095;28;20190;-71
2021/12/20 03:40:32;;;;;;;26.33;18.03;;;;;;;3.08;100.00;98880.81;5058302;28;20185;-71
2021/12/20 03:42:59;;;;;;;29.40;18.73;;;;;;;3.04;100.00;98868.94;5058251;28;20228;-72
2021/12/20 03:45:25;;;;;;;28.77;18.20;;;;;;;3.03;100.00;98868.09;5057447;28;20666;-71
2021/12/20 03:47:52;;;;;;;26.97;17.50;;;;;;;3.01;100.00;98861.34;5058163;28;20201;-71
2021/12/20 03:50:18;;;;;;;28.10;17.53;;;;;;;2.96;100.00;98863.63;5057919;28;20206;-71
2021/12/20 03:52:45;;;;;;;27.30;17.97;;;;;;;2.96;100.00;98874.13;5058063;28;20190;-71
2021/12/20 03:55:13;;;;;;;32.77;18.87;;;;;;;2.89;100.00;98866.03;5057939;28;20222;-72
2021/12/20 03:57:40;;;;;;;26.23;17.20;;;;;;;2.85;100.00;98862.03;5057945;28;20193;-72
2021/12/20 04:00:11;;;;;;;27.33;18.23;;;;;;;2.85;100.00;98863.84;5057908;28;20288;-71
2021/12/20 04:02:42;;;;;;;29.57;17.80;;;;;;;2.83;100.00;98865.78;5057822;28;20205;-71
2021/12/20 04:05:09;;;;;;;30.13;18.27;;;;;;;2.81;100.00;98863.34;5057698;28;20267;-71
2021/12/20 04:07:35;;;;;;;31.50;18.60;;;;;;;2.84;100.00;98856.97;5057707;28;20215;-72
2021/12/20 04:10:02;;;;;;;27.57;17.70;;;;;;;2.88;100.00;98855.66;5057612;28;20339;-72
2021/12/20 04:12:28;;;;;;;27.40;17.77;;;;;;;2.93;100.00;98866.56;5057343;28;20209;-71
2021/12/20 04:14:55;;;;;;;29.53;18.87;;;;;;;2.96;100.00;98867.06;5057523;28;20530;-71
2021/12/20 04:17:21;;;;;;;28.23;16.73;;;;;;;2.97;100.00;98862.63;5057532;28;20193;-71
2021/12/20 04:19:47;;;;;;;26.47;18.23;;;;;;;2.93;100.00;98856.06;5057502;28;20186;-71
2021/12/20 04:22:15;;;;;;;28.03;18.70;;;;;;;2.93;100.00;98858.69;5057393;28;20208;-71
2021/12/20 04:24:42;;;;;;;27.63;18.63;;;;;;;2.95;100.00;98867.22;5056975;28;20221;-72
2021/12/20 04:27:09;;;;;;;30.03;18.67;;;;;;;2.99;100.00;98861.50;5057262;28;20220;-72
2021/12/20 04:29:35;;;;;;;29.60;18.60;;;;;;;3.04;100.00;98866.31;5056937;28;20190;-72
2021/12/20 04:32:01;;;;;;;29.27;17.73;;;;;;;3.04;100.00;98866.31;5057046;28;20205;-71
2021/12/20 04:34:28;;;;;;;29.90;18.73;;;;;;;3.08;100.00;98868.47;5056895;28;20231;-71
2021/12/20 04:36:54;;;;;;;26.87;18.00;;;;;;;3.10;100.00;98860.44;5056912;28;20208;-72
2021/12/20 04:39:25;;;;;;;27.13;18.20;;;;;;;3.01;100.00;98863.97;5056921;28;20186;-72
2021/12/20 04:41:51;;;;;;;27.47;17.80;;;;;;;3.01;100.00;98862.19;5056637;28;20576;-72
2021/12/20 04:44:18;;;;;;;32.07;17.23;;;;;;;3.01;100.00;98869.22;5056704;28;20194;-71
2021/12/20 04:46:44;;;;;;;26.93;18.23;;;;;;;2.99;100.00;98858.88;5056658;28;20196;-72
2021/12/20 04:49:10;;;;;;;26.47;16.60;;;;;;;2.99;100.00;98865.94;5056481;28;20606;-71
2021/12/20 04:51:37;;;;;;;27.77;17.50;;;;;;;3.02;100.00;98870.91;5056887;28;20525;-72
2021/12/20 04:54:03;;;;;;;29.53;18.53;;;;;;;3.08;100.00;98867.66;5056799;28;20212;-71
2021/12/20 04:56:30;;;;;;;30.53;18.67;;;;;;;3.00;100.00;98873.69;5056213;28;20577;-71
2021/12/20 04:58:56;;;;;;;29.07;18.07;;;;;;;3.01;100.00;98864.81;5055911;28;20588;-72
2021/12/20 05:01:23;;;;;;;25.93;17.43;;;;;;;3.05;100.00;98866.16;5057103;28;20200;-72
2021/12/20 05:03:49;;;;;;;28.67;18.40;;;;;;;3.05;100.00;98875.84;5056428;28;20201;-72
2021/12/20 05:06:16;;;;;;;29.77;18.10;;;;;;;3.10;100.00;98878.81;5056452;28;20232;-72
2021/12/20 05:08:48;;;;;;;27.60;17.47;;;;;;;3.07;100.00;98871.28;5056327;28;20596;-72
2021/12/20 05:11:14;;;;;;;29.20;17.37;;;;;;;3.01;100.00;98866.59;5056247;28;20278;-72
2021/12/20 05:13:41;;;;;;;26.50;17.13;;;;;;;3.05;100.00;98867.97;5056344;28;20211;-72
2021/12/20 05:16:07;;;;;;;29.77;17.97;;;;;;;3.08;100.00;98873.72;5055978;28;20232;-72
2021/12/20 05:18:34;;;;;;;30.13;17.33;;;;;;;3.12;100.00;98869.00;5056261;28;20208;-71
2021/12/20 05:21:00;;;;;;;25.10;16.87;;;;;;;3.10;100.00;98869.16;5056100;28;20186;-72
2021/12/20 05:23:27;;;;;;;26.57;18.27;;;;;;;3.04;100.00;98867.16;5056025;28;20193;-72
2021/12/20 05:25:55;;;;;;;29.30;18.70;;;;;;;3.08;100.00;98873.72;5056261;28;20227;-72
2021/12/20 05:28:21;;;;;;;25.60;17.87;;;;;;;3.07;100.00;98876.53;5056174;28;20196;-72
2021/12/20 05:30:50;;;;;;;26.73;16.93;;;;;;;3.07;100.00;98866.81;5056046;28;20288;-71
2021/12/20 05:33:16;;;;;;;27.60;18.20;;;;;;;3.10;100.00;98874.41;5056231;28;20202;-72
2021/12/20 05:35:43;;;;;;;30.07;18.23;;;;;;;3.08;100.00;98878.16;5056192;28;20528;-71
2021/12/20 05:38:09;;;;;;;29.50;18.70;;;;;;;3.13;100.00;98874.13;5056118;28;20200;-71
2021/12/20 05:40:36;;;;;;;25.60;17.03;;;;;;;3.16;100.00;98875.63;5056517;28;20189;-71
2021/12/20 05:43:03;;;;;;;28.20;16.90;;;;;;;3.13;100.00;98878.53;5055989;28;20189;-72
2021/12/20 05:45:30;;;;;;;25.63;17.20;;;;;;;3.16;100.00;98870.38;5055416;28;20223;-72
2021/12/20 05:47:56;;;;;;;24.47;16.80;;;;;;;3.16;100.00;98881.69;5056029;28;20189;-72
2021/12/20 05:50:23;;;;;;;29.80;18.70;;;;;;;3.16;100.00;98891.38;5055564;28;20209;-71
2021/12/20 05:52:50;;;;;;;26.10;17.40;;;;;;;3.16;100.00;98894.00;5055848;28;20205;-71
2021/12/20 05:55:18;;;;;;;26.10;17.97;;;;;;;3.18;100.00;98897.28;5055876;28;20225;-72
2021/12/20 05:57:45;;;;;;;28.30;17.80;;;;;;;3.10;100.00;98891.97;5055852;28;20194;-71
2021/12/20 06:00:16;;;;;;;28.67;17.30;;;;;;;3.18;100.00;98902.53;5055388;28;20189;-72
2021/12/20 06:02:43;;;;;;;26.83;17.20;;;;;;;3.14;100.00;98903.81;5055616;28;20186;-71
2021/12/20 06:05:11;;;;;;;31.77;18.60;;;;;;;3.09;100.00;98900.81;5055597;28;20236;-71
2021/12/20 06:07:40;;;;;;;28.40;17.50;;;;;;;3.05;100.00;98896.84;5055735;28;20197;-71
2021/12/20 06:10:08;;;;;;;29.73;17.77;;;;;;;3.06;100.00;98895.88;5059272;28;20212;-72
2021/12/20 06:12:35;;;;;;;27.27;17.80;;;;;;;3.03;100.00;98896.19;5058897;28;20213;-72
2021/12/20 06:15:02;;;;;;;29.10;18.10;;;;;;;2.98;100.00;98899.25;5059100;28;20252;-72
2021/12/20 06:17:29;;;;;;;29.60;17.93;;;;;;;3.00;100.00;98888.59;5059344;28;20209;-71
2021/12/20 06:19:55;;;;;;;26.67;17.37;;;;;;;3.04;100.00;98893.41;5059305;28;20190;-72
2021/12/20 06:22:22;;;;;;;26.73;17.13;;;;;;;3.03;100.00;98891.75;5058988;28;20193;-71
2021/12/20 06:24:48;;;;;;;28.47;18.07;;;;;;;3.02;100.00;98889.28;5059215;28;20232;-72
2021/12/20 06:27:14;;;;;;;25.37;17.73;;;;;;;3.01;100.00;98890.25;5058771;28;20593;-71
2021/12/20 06:29:41;;;;;;;28.17;17.87;;;;;;;2.94;100.00;98900.53;5059714;28;20193;-72
2021/12/20 06:32:08;;;;;;;25.67;17.63;;;;;;;2.99;100.00;98889.59;5058997;28;20217;-72
2021/12/20 06:34:35;;;;;;;25.00;16.00;;;;;;;2.96;100.00;98892.50;5058551;28;20228;-72
2021/12/20 06:37:02;;;;;;;29.20;16.90;;;;;;;3.02;100.00;98897.19;5058829;28;20193;-72
2021/12/20 06:39:30;;;;;;;25.10;15.87;;;;;;;3.04;100.00;98903.09;5058868;28;20197;-71
2021/12/20 06:41:56;;;;;;;23.87;15.90;;;;;;;3.00;100.00;98899.94;5058713;28;20200;-72
2021/12/20 06:44:23;;;;;;;31.47;18.50;;;;;;;2.95;100.00;98901.38;5058676;28;20189;-72
2021/12/20 06:46:50;;;;;;;27.90;18.10;;;;;;;3.00;100.00;98899.09;5058529;28;20196;-71
2021/12/20 06:49:16;;;;;;;25.60;16.87;;;;;;;2.99;100.00;98900.09;5058777;28;20201;-71
2021/12/20 06:51:44;;;;;;;25.90;17.10;;;;;;;2.96;100.00;98901.22;5058606;28;20315;-72
2021/12/20 06:54:13;;;;;;;24.03;15.80;;;;;;;2.96;100.00;98895.97;5058803;28;20197;-72
2021/12/20 06:56:39;;;;;;;28.33;17.73;;;;;;;3.00;100.00;98901.72;5058554;28;20198;-67
2021/12/20 06:59:06;;;;;;;27.73;16.57;;;;;;;3.00;100.00;98905.19;5058521;28;20189;-67
2021/12/20 07:01:33;;;;;;;22.70;15.87;;;;;;;2.99;100.00;98905.34;5058136;28;20501;-68
2021/12/20 07:04:01;;;;;;;24.77;16.07;;;;;;;3.03;100.00;98914.59;5058486;28;20190;-67
2021/12/20 07:06:27;;;;;;;26.57;17.03;;;;;;;3.06;100.00;98912.47;5058357;28;20225;-67
2021/12/20 07:08:53;;;;;;;23.63;15.63;;;;;;;3.14;100.00;98915.16;5058410;28;20209;-67
2021/12/20 07:11:20;;;;;;;23.53;15.83;;;;;;;3.10;100.00;98920.84;5058278;28;20224;-67
2021/12/20 07:13:46;;;;;;;23.83;16.30;;;;;;;3.10;100.00;98920.84;5058234;28;20297;-67
2021/12/20 07:16:14;;;;;;;23.50;15.93;;;;;;;3.08;100.00;98914.94;5058051;28;20664;-67
2021/12/20 07:18:40;;;;;;;25.17;15.93;;;;;;;3.10;100.00;98919.06;5058329;28;20251;-68
2021/12/20 07:21:07;;;;;;;23.33;15.80;;;;;;;3.09;100.00;98924.47;5057630;28;20193;-67
2021/12/20 07:23:34;;;;;;;26.37;15.67;;;;;;;3.07;100.00;98921.19;5058443;28;20197;-72
2021/12/20 07:26:01;;;;;;;22.37;16.07;;;;;;;3.04;100.00;98919.69;5058257;28;20232;-72
2021/12/20 07:28:27;;;;;;;27.07;16.77;;;;;;;3.02;100.00;98926.06;5057984;28;20193;-73
2021/12/20 07:30:54;;;;;;;22.27;14.87;;;;;;;3.07;100.00;98929.06;5057578;28;20213;-71
2021/12/20 07:33:20;;;;;;;24.80;15.77;;;;;;;3.02;100.00;98934.75;5057963;28;20194;-72
2021/12/20 07:35:48;;;;;;;22.53;14.87;;;;;;;3.04;100.00;98926.72;5057969;28;20225;-71
2021/12/20 07:38:15;;;;;;;25.43;15.93;;;;;;;3.13;100.00;98933.72;5057639;28;20194;-70
2021/12/20 07:40:46;;;;;;;25.30;16.27;;;;;;;3.13;100.00;98931.91;5058664;28;20197;-71
2021/12/20 07:43:15;;;;;;;26.80;16.57;;;;;;;3.13;100.00;98938.97;5057697;28;20194;-71
2021/12/20 07:45:47;;;;;;;23.27;16.37;;;;;;;3.12;100.00;98934.69;5057698;28;20253;-71
2021/12/20 07:48:14;;;;;;;24.03;15.90;;;;;;;3.14;100.00;98945.84;5057795;28;20280;-71
2021/12/20 07:50:40;;;;;;;28.00;16.60;;;;;;;3.15;100.00;98939.63;5057423;28;20612;-71
2021/12/20 07:53:07;;;;;;;23.67;16.50;;;;;;;3.16;100.00;98946.56;5057542;28;20191;-71
2021/12/20 07:55:33;;;;;;;28.13;16.77;;;;;;;3.13;100.00;98944.22;5057555;28;20283;-71
2021/12/20 07:58:00;;;;;;;24.47;15.60;;;;;;;3.15;100.00;98943.09;5057383;28;20201;-71
2021/12/20 08:00:27;;;;;;;25.97;15.93;;;;;;;3.20;100.00;98945.28;5057253;28;20190;-71
2021/12/20 08:02:56;;;;;;;24.60;16.17;;;;;;;3.23;100.00;98944.94;5057489;28;20497;-71
2021/12/20 08:05:23;;;;;;;26.60;16.77;;;;;;;3.24;100.00;98952.69;5057311;28;20225;-72
2021/12/20 08:07:50;;;;;;;25.93;15.90;;;;;;;3.24;100.00;98938.72;5057443;28;20285;-72
2021/12/20 08:10:20;;;;;;;23.27;15.73;;;;;;;3.23;100.00;98939.69;5056995;28;20585;-73
2021/12/20 08:12:47;;;;;;;27.77;17.03;;;;;;;3.29;100.00;98945.19;5057524;28;20209;-72
2021/12/20 08:15:14;;;;;;;22.77;15.67;;;;;;;3.36;100.00;98945.41;5056807;28;20217;-73
2021/12/20 08:17:41;;;;;;;26.93;16.67;;;;;;;3.42;100.00;98950.03;5056770;28;20194;-72
2021/12/20 08:20:09;;;;;;;24.30;15.67;;;;;;;3.43;100.00;98942.00;5057053;28;20190;-72
2021/12/20 08:22:36;;;;;;;26.70;17.50;;;;;;;3.39;100.00;98939.84;5056895;28;20189;-73
2021/12/20 08:25:04;;;;;;;24.30;16.67;;;;;;;3.30;100.00;98940.75;5057129;28;20229;-72
2021/12/20 08:27:31;;;;;;;26.33;16.83;;;;;;;3.36;100.00;98945.41;5057086;28;20483;-73
2021/12/20 08:29:58;;;;;;;25.87;17.10;;;;;;;3.43;100.00;98942.00;5056684;28;20585;-72
2021/12/20 08:32:25;;;;;;;25.53;16.57;;;;;;;3.47;100.00;98947.78;5055315;28;20209;-72
2021/12/20 08:34:52;;;;;;;22.23;15.37;;;;;;;3.57;100.00;98948.53;5056894;28;20227;-72
2021/12/20 08:37:18;;;;;;;28.23;16.83;;;;;;;3.53;100.00;98957.69;5056950;28;20208;-73
2021/12/20 08:39:45;;;;;;;24.07;15.50;;;;;;;3.57;100.00;98953.78;5057004;28;20186;-73
2021/12/20 08:42:11;;;;;;;25.50;16.20;;;;;;;3.60;100.00;98948.19;5056433;28;20488;-72
2021/12/20 08:44:38;;;;;;;23.97;15.93;;;;;;;3.63;100.00;98961.88;5056752;28;20221;-72
2021/12/20 08:47:05;;;;;;;24.47;16.50;;;;;;;3.61;99.65;98960.41;5056807;28;20189;-73
2021/12/20 08:49:31;;;;;;;23.83;16.33;;;;;;;3.73;100.00;98959.97;5056788;28;20520;-72
2021/12/20 08:52:00;;;;;;;22.73;16.67;;;;;;;3.72;100.00;98968.84;5056553;28;20213;-73
2021/12/20 08:54:29;;;;;;;22.50;16.13;;;;;;;3.77;100.00;98971.00;5056233;28;20243;-73
2021/12/20 08:56:57;;;;;;;22.83;16.67;;;;;;;3.80;100.00;98966.25;5056505;28;20240;-73
2021/12/20 08:59:24;;;;;;;23.80;15.50;;;;;;;3.83;100.00;98967.75;5056191;28;20585;-72
2021/12/20 09:01:51;;;;;;;24.53;16.57;;;;;;;3.84;99.66;98969.44;5056510;28;20186;-73
2021/12/20 09:04:18;;;;;;;23.20;16.33;;;;;;;3.84;99.68;98969.44;5056127;28;20585;-72
2021/12/20 09:06:45;;;;;;;26.73;16.60;;;;;;;3.91;99.75;98973.06;5056520;28;20201;-72
2021/12/20 09:09:15;;;;;;;22.80;16.90;;;;;;;3.84;98.31;98972.06;5056517;28;20185;-73
2021/12/20 09:11:42;;;;;;;22.97;15.73;;;;;;;3.84;98.41;98972.06;5056021;28;20233;-74
2021/12/20 09:14:09;;;;;;;25.13;16.67;;;;;;;3.82;98.63;98974.84;5056543;28;20201;-73
2021/12/20 09:16:35;;;;;;;22.70;16.33;;;;;;;3.94;98.51;98967.50;5055954;28;20190;-73
2021/12/20 09:19:03;;;;;;;23.10;16.03;;;;;;;4.07;98.78;98974.00;5056290;28;20212;-73
2021/12/20 09:21:29;;;;;;;24.83;16.67;;;;;;;3.93;98.63;98973.75;5056319;28;20193;-73
2021/12/20 09:23:56;;;;;;;23.03;15.83;;;;;;;4.02;99.00;98983.34;5056225;28;20189;-72
2021/12/20 09:26:23;;;;;;;25.63;16.40;;;;;;;4.02;98.79;98985.97;5056141;28;20275;-73
2021/12/20 09:28:50;;;;;;;23.73;16.10;;;;;;;4.03;98.26;98987.63;5055990;28;20190;-73
2021/12/20 09:31:16;;;;;;;26.30;17.30;;;;;;;4.04;98.11;98986.66;5056015;28;20213;-73
2021/12/20 09:33:43;;;;;;;23.73;16.07;;;;;;;4.10;98.43;98984.22;5056079;28;20190;-73
2021/12/20 09:36:09;;;;;;;26.73;16.57;;;;;;;4.09;97.07;98987.84;5055985;28;20244;-73
2021/12/20 09:38:35;;;;;;;23.90;16.50;;;;;;;4.20;97.59;98984.94;5056006;28;20196;-73
2021/12/20 09:41:17;;;;;;;23.20;15.90;;;;;;;4.35;96.71;98983.38;5055851;28;20215;-72
2021/12/20 09:43:49;;;;;;;25.73;16.43;;;;;;;4.17;96.49;98994.94;5056766;28;20284;-72
2021/12/20 09:46:17;;;;;;;23.87;16.27;;;;;;;4.31;96.43;98983.84;5059995;28;20289;-73
2021/12/20 09:48:49;;;;;;;24.73;17.03;;;;;;;4.31;95.65;98989.09;5060534;28;20201;-73
2021/12/20 09:51:15;;;;;;;33.10;19.73;;;;;;;4.38;95.40;98983.03;5060002;28;20560;-73
2021/12/20 09:53:42;;;;;;;26.87;18.73;;;;;;;4.24;94.56;98977.53;5059924;28;20193;-73
2021/12/20 09:56:09;;;;;;;25.73;18.13;;;;;;;4.22;95.23;98975.09;5059939;28;20264;-73
2021/12/20 09:58:39;;;;;;;26.87;17.63;;;;;;;4.34;95.49;98980.91;5059734;28;20194;-73
2021/12/20 10:01:08;;;;;;;27.50;19.20;;;;;;;4.46;95.62;98990.16;5059487;28;20548;-73
2021/12/20 10:03:35;;;;;;;27.50;18.97;;;;;;;4.43;94.59;98982.59;5059712;28;20205;-73
2021/12/20 10:06:02;;;;;;;28.67;18.67;;;;;;;4.30;95.47;98974.28;5059296;28;20225;-72
2021/12/20 10:08:33;;;;;;;30.53;21.60;;;;;;;4.46;96.92;98976.97;5059643;28;20190;-73
2021/12/20 10:11:08;;;;;;;28.20;19.13;;;;;;;4.77;94.79;98978.09;5059288;28;20581;-73
2021/12/20 10:13:37;;;;;;;28.17;19.27;;;;;;;4.96;93.67;98969.91;5059617;28;20203;-73
2021/12/20 10:16:13;;;;;;;28.67;17.93;;;;;;;5.03;92.77;98976.19;5059609;28;20221;-73
2021/12/20 10:18:40;;;;;;;27.30;19.53;;;;;;;5.26;91.46;98979.84;5059678;28;20189;-72
2021/12/20 10:21:06;;;;;;;29.27;19.27;;;;;;;5.17;92.22;98981.66;5059627;28;20522;-72
2021/12/20 10:23:39;;;;;;;26.40;18.53;;;;;;;4.91;92.16;98982.75;5059358;28;20193;-73
2021/12/20 10:26:22;;;;;;;25.03;18.23;;;;;;;5.11;92.07;98978.84;5059292;28;20292;-73
2021/12/20 10:28:52;;;;;;;29.17;19.83;;;;;;;5.12;92.10;98978.69;5059254;28;20197;-73
2021/12/20 10:31:24;;;;;;;25.53;18.47;;;;;;;5.28;91.48;98981.34;5058997;28;20195;-73
2021/12/20 10:34:01;;;;;;;26.00;18.23;;;;;;;5.37;89.09;98977.72;5059098;28;20205;-73
2021/12/20 10:36:28;;;;;;;26.50;17.97;;;;;;;5.29;88.07;98975.06;5059150;28;20225;-73
2021/12/20 10:38:59;;;;;;;26.20;18.20;;;;;;;5.00;91.13;98961.53;5059152;28;20480;-72
2021/12/20 10:41:33;;;;;;;27.97;19.33;;;;;;;5.28;92.47;98967.31;5059150;28;20263;-73
2021/12/20 10:44:03;;;;;;;25.57;18.53;;;;;;;5.49;87.94;98965.03;5058968;28;20242;-73
2021/12/20 10:46:32;;;;;;;25.43;17.63;;;;;;;5.51;88.23;98957.75;5059045;28;20324;-72
2021/12/20 10:49:11;;;;;;;26.10;18.23;;;;;;;5.77;85.38;98959.25;5059102;28;20189;-73
2021/12/20 10:51:37;;;;;;;22.70;16.27;;;;;;;5.82;85.62;98959.59;5058722;28;20272;-73
2021/12/20 10:54:12;;;;;;;21.00;14.70;;;;;;;5.86;82.73;98952.16;5058811;28;20200;-73
2021/12/20 10:56:52;;;;;;;18.97;13.47;;;;;;;5.87;82.90;98951.19;5057441;28;20555;-73
2021/12/20 10:59:22;;;;;;;19.30;13.13;;;;;;;5.30;82.41;98954.81;5058763;28;20194;-73
2021/12/20 11:02:40;;;;;;;18.37;13.33;;;;;;;5.50;83.21;98949.06;5059271;28;20188;-74
2021/12/20 11:04:51;;;;;;;24.23;16.80;;;;;;;5.40;85.59;98952.84;5058122;28;20271;-74
2021/12/20 11:10:07;;;;;;;19.93;14.57;;;;;;;5.22;86.32;98947.72;5058400;28;20177;-73
2021/12/20 11:12:34;;;;;;;23.37;14.50;;;;;;;5.07;84.52;98943.25;5058151;28;20244;-73
2021/12/20 11:15:07;;;;;;;18.57;11.60;;;;;;;5.44;80.77;98952.34;5058476;28;20228;-74
2021/12/20 11:17:34;;;;;;;19.70;12.00;;;;;;;5.48;82.95;98940.47;5058328;28;20273;-74
2021/12/20 11:20:01;;;;;;;18.50;11.50;;;;;;;5.61;81.07;98947.91;5058367;28;20243;-74
2021/12/20 11:22:32;;;;;;;17.23;11.17;;;;;;;5.38;81.21;98950.34;5057987;28;20189;-74
2021/12/20 11:25:03;;;;;;;18.23;11.20;;;;;;;5.43;80.42;98948.06;5058029;28;20225;-74
2021/12/20 11:27:37;;;;;;;20.23;13.20;;;;;;;5.25;83.50;98946.56;5058316;28;20227;-74
2021/12/20 11:30:16;;;;;;;19.50;13.57;;;;;;;5.30;83.44;98941.63;5057758;28;20507;-74
2021/12/20 11:32:44;;;;;;;20.57;13.77;;;;;;;5.22;83.66;98936.34;5058104;28;20213;-74
2021/12/20 11:35:10;;;;;;;22.53;15.17;;;;;;;5.24;84.07;98944.94;5057942;28;20233;-74